sensor_id;sensor_type;location;lat;lon;timestamp;temperature;humidity
4354;DHT22;11018;51.258;6.806;2023-05-10T00:01:04;14.30;99.90
4354;DHT22;11018;51.258;6.806;2023-05-10T00:03:30;14.30;99.90
4354;DHT22;11018;51.258;6.806;2023-05-10T00:05:56;14.40;99.90
4354;DHT22;11018;51.258;6.806;2023-05-10T00:08:22;14.30;99.90
4354;DHT22;11018;51.258;6.806;2023-05-10T00:10:48;14.30;99.90
4354;DHT22;11018;51.258;6.806;2023-05-10T00:13:13;14.30;99.90
4354;DHT22;11018;51.258;6.806;2023-05-10T00:15:39;14.30;99.90
4354;DHT22;11018;51.258;6.806;2023-05-10T00:18:04;14.30;99.90
4354;DHT22;11018;51.258;6.806;2023-05-10T00:20:30;14.30;99.90
4354;DHT22;11018;51.258;6.806;2023-05-10T00:22:55;14.30;99.90
4354;DHT22;11018;51.258;6.806;2023-05-10T00:25:21;14.30;99.90
4354;DHT22;11018;51.258;6.806;2023-05-10T00:27:47;14.40;99.90
4354;DHT22;11018;51.258;6.806;2023-05-10T00:30:13;14.30;99.90
4354;DHT22;11018;51.258;6.806;2023-05-10T00:32:38;14.30;99.90
4354;DHT22;11018;51.258;6.806;2023-05-10T00:35:04;14.30;99.90
4354;DHT22;11018;51.258;6.806;2023-05-10T00:37:30;14.40;99.90
4354;DHT22;11018;51.258;6.806;2023-05-10T00:39:55;14.40;99.90
4354;DHT22;11018;51.258;6.806;2023-05-10T00:42:22;14.30;99.90
4354;DHT22;11018;51.258;6.806;2023-05-10T00:44:47;14.50;99.90
4354;DHT22;11018;51.258;6.806;2023-05-10T00:47:13;14.30;99.90
4354;DHT22;11018;51.258;6.806;2023-05-10T00:49:39;14.20;99.90
4354;DHT22;11018;51.258;6.806;2023-05-10T00:52:04;14.20;99.90
4354;DHT22;11018;51.258;6.806;2023-05-10T00:54:30;14.10;99.90
4354;DHT22;11018;51.258;6.806;2023-05-10T00:56:56;14.10;99.90
4354;DHT22;11018;51.258;6.806;2023-05-10T00:59:22;14.00;99.90
4354;DHT22;11018;51.258;6.806;2023-05-10T01:01:48;14.00;99.90
4354;DHT22;11018;51.258;6.806;2023-05-10T01:04:14;13.90;99.90
4354;DHT22;11018;51.258;6.806;2023-05-10T01:06:41;13.90;99.90
4354;DHT22;11018;51.258;6.806;2023-05-10T01:09:06;13.90;99.90
4354;DHT22;11018;51.258;6.806;2023-05-10T01:11:36;13.80;99.90
4354;DHT22;11018;51.258;6.806;2023-05-10T01:14:02;13.80;99.90
4354;DHT22;11018;51.258;6.806;2023-05-10T01:16:29;13.80;99.90
4354;DHT22;11018;51.258;6.806;2023-05-10T01:18:57;13.80;99.90
4354;DHT22;11018;51.258;6.806;2023-05-10T01:21:47;13.80;99.90
4354;DHT22;11018;51.258;6.806;2023-05-10T01:27:31;13.90;99.90
4354;DHT22;11018;51.258;6.806;2023-05-10T01:30:35;13.90;99.90
4354;DHT22;11018;51.258;6.806;2023-05-10T01:35:59;13.80;99.90
4354;DHT22;11018;51.258;6.806;2023-05-10T01:41:32;13.80;99.90
4354;DHT22;11018;51.258;6.806;2023-05-10T01:46:43;13.80;99.90
4354;DHT22;11018;51.258;6.806;2023-05-10T01:49:31;13.70;99.90
4354;DHT22;11018;51.258;6.806;2023-05-10T01:52:03;13.70;99.90
4354;DHT22;11018;51.258;6.806;2023-05-10T01:54:33;13.70;99.90
4354;DHT22;11018;51.258;6.806;2023-05-10T01:57:05;13.70;99.90
4354;DHT22;11018;51.258;6.806;2023-05-10T01:59:35;13.60;99.90
4354;DHT22;11018;51.258;6.806;2023-05-10T02:02:02;13.60;99.90
4354;DHT22;11018;51.258;6.806;2023-05-10T02:04:29;13.60;99.90
4354;DHT22;11018;51.258;6.806;2023-05-10T02:06:56;13.60;99.90
4354;DHT22;11018;51.258;6.806;2023-05-10T02:09:23;13.50;99.90
4354;DHT22;11018;51.258;6.806;2023-05-10T02:11:50;13.50;99.90
4354;DHT22;11018;51.258;6.806;2023-05-10T02:14:16;13.50;99.90
4354;DHT22;11018;51.258;6.806;2023-05-10T02:16:44;13.50;99.90
4354;DHT22;11018;51.258;6.806;2023-05-10T02:19:12;13.60;99.90
4354;DHT22;11018;51.258;6.806;2023-05-10T02:21:39;13.60;99.90
4354;DHT22;11018;51.258;6.806;2023-05-10T02:24:06;13.60;99.90
4354;DHT22;11018;51.258;6.806;2023-05-10T02:26:34;13.70;99.90
4354;DHT22;11018;51.258;6.806;2023-05-10T02:29:02;13.70;99.90
4354;DHT22;11018;51.258;6.806;2023-05-10T02:31:32;13.70;99.90
4354;DHT22;11018;51.258;6.806;2023-05-10T02:33:59;13.80;99.90
4354;DHT22;11018;51.258;6.806;2023-05-10T02:36:26;13.80;99.90
4354;DHT22;11018;51.258;6.806;2023-05-10T02:38:53;13.90;99.90
4354;DHT22;11018;51.258;6.806;2023-05-10T02:41:20;13.90;99.90
4354;DHT22;11018;51.258;6.806;2023-05-10T02:43:53;13.90;99.90
4354;DHT22;11018;51.258;6.806;2023-05-10T02:46:21;14.10;99.90
4354;DHT22;11018;51.258;6.806;2023-05-10T02:48:46;14.10;99.90
4354;DHT22;11018;51.258;6.806;2023-05-10T02:51:14;14.10;99.90
4354;DHT22;11018;51.258;6.806;2023-05-10T02:53:44;14.00;99.90
4354;DHT22;11018;51.258;6.806;2023-05-10T02:56:23;14.00;99.90
4354;DHT22;11018;51.258;6.806;2023-05-10T02:58:50;13.90;99.90
4354;DHT22;11018;51.258;6.806;2023-05-10T03:01:16;13.90;99.90
4354;DHT22;11018;51.258;6.806;2023-05-10T03:03:41;13.80;99.90
4354;DHT22;11018;51.258;6.806;2023-05-10T03:06:07;13.80;99.90
4354;DHT22;11018;51.258;6.806;2023-05-10T03:08:32;13.80;99.90
4354;DHT22;11018;51.258;6.806;2023-05-10T03:11:16;13.80;99.90
4354;DHT22;11018;51.258;6.806;2023-05-10T03:14:13;13.70;99.90
4354;DHT22;11018;51.258;6.806;2023-05-10T03:16:46;13.70;99.90
4354;DHT22;11018;51.258;6.806;2023-05-10T03:19:22;13.80;99.90
4354;DHT22;11018;51.258;6.806;2023-05-10T03:21:52;13.80;99.90
4354;DHT22;11018;51.258;6.806;2023-05-10T03:24:21;13.80;99.90
4354;DHT22;11018;51.258;6.806;2023-05-10T03:26:48;13.80;99.90
4354;DHT22;11018;51.258;6.806;2023-05-10T03:29:15;13.80;99.90
4354;DHT22;11018;51.258;6.806;2023-05-10T03:31:41;13.90;99.90
4354;DHT22;11018;51.258;6.806;2023-05-10T03:34:07;13.90;99.90
4354;DHT22;11018;51.258;6.806;2023-05-10T03:36:32;14.00;99.90
4354;DHT22;11018;51.258;6.806;2023-05-10T03:38:58;14.00;99.90
4354;DHT22;11018;51.258;6.806;2023-05-10T03:41:24;13.90;99.90
4354;DHT22;11018;51.258;6.806;2023-05-10T03:43:50;14.00;99.90
4354;DHT22;11018;51.258;6.806;2023-05-10T03:46:16;14.10;99.90
4354;DHT22;11018;51.258;6.806;2023-05-10T03:48:42;14.10;99.90
4354;DHT22;11018;51.258;6.806;2023-05-10T03:51:07;14.10;99.90
4354;DHT22;11018;51.258;6.806;2023-05-10T03:53:33;14.00;99.90
4354;DHT22;11018;51.258;6.806;2023-05-10T03:55:59;14.10;99.90
4354;DHT22;11018;51.258;6.806;2023-05-10T03:58:24;14.20;99.90
4354;DHT22;11018;51.258;6.806;2023-05-10T04:00:51;14.20;99.90
4354;DHT22;11018;51.258;6.806;2023-05-10T04:03:16;14.10;99.90
4354;DHT22;11018;51.258;6.806;2023-05-10T04:05:43;14.20;99.90
4354;DHT22;11018;51.258;6.806;2023-05-10T04:08:08;14.20;99.90
4354;DHT22;11018;51.258;6.806;2023-05-10T04:10:34;14.20;99.90
4354;DHT22;11018;51.258;6.806;2023-05-10T04:13:00;14.20;99.90
4354;DHT22;11018;51.258;6.806;2023-05-10T04:15:25;14.20;99.90
4354;DHT22;11018;51.258;6.806;2023-05-10T04:17:51;14.20;99.90
4354;DHT22;11018;51.258;6.806;2023-05-10T04:20:17;14.20;99.90
4354;DHT22;11018;51.258;6.806;2023-05-10T04:22:42;14.20;99.90
4354;DHT22;11018;51.258;6.806;2023-05-10T04:25:08;14.20;99.90
4354;DHT22;11018;51.258;6.806;2023-05-10T04:27:34;14.30;99.90
4354;DHT22;11018;51.258;6.806;2023-05-10T04:30:00;14.20;99.90
4354;DHT22;11018;51.258;6.806;2023-05-10T04:32:25;14.10;99.90
4354;DHT22;11018;51.258;6.806;2023-05-10T04:34:51;14.20;99.90
4354;DHT22;11018;51.258;6.806;2023-05-10T04:37:17;14.20;99.90
4354;DHT22;11018;51.258;6.806;2023-05-10T04:39:43;14.20;99.90
4354;DHT22;11018;51.258;6.806;2023-05-10T04:42:08;14.10;99.90
4354;DHT22;11018;51.258;6.806;2023-05-10T04:44:34;14.20;99.90
4354;DHT22;11018;51.258;6.806;2023-05-10T04:47:00;14.20;99.90
4354;DHT22;11018;51.258;6.806;2023-05-10T04:49:27;14.20;99.90
4354;DHT22;11018;51.258;6.806;2023-05-10T04:51:53;14.30;99.90
4354;DHT22;11018;51.258;6.806;2023-05-10T04:54:18;14.40;99.90
4354;DHT22;11018;51.258;6.806;2023-05-10T04:56:44;14.40;99.90
4354;DHT22;11018;51.258;6.806;2023-05-10T04:59:09;14.40;99.90
4354;DHT22;11018;51.258;6.806;2023-05-10T05:01:35;14.50;99.90
4354;DHT22;11018;51.258;6.806;2023-05-10T05:04:01;14.60;99.90
4354;DHT22;11018;51.258;6.806;2023-05-10T05:06:27;14.60;99.90
4354;DHT22;11018;51.258;6.806;2023-05-10T05:08:52;14.60;99.90
4354;DHT22;11018;51.258;6.806;2023-05-10T05:11:18;14.60;99.90
4354;DHT22;11018;51.258;6.806;2023-05-10T05:13:44;14.60;99.90
4354;DHT22;11018;51.258;6.806;2023-05-10T05:16:12;14.70;99.90
4354;DHT22;11018;51.258;6.806;2023-05-10T05:18:37;14.90;99.90
4354;DHT22;11018;51.258;6.806;2023-05-10T05:21:12;15.00;99.90
4354;DHT22;11018;51.258;6.806;2023-05-10T05:23:38;14.90;99.90
4354;DHT22;11018;51.258;6.806;2023-05-10T05:26:03;14.90;99.90
4354;DHT22;11018;51.258;6.806;2023-05-10T05:28:29;14.80;99.90
4354;DHT22;11018;51.258;6.806;2023-05-10T05:30:58;14.90;99.90
4354;DHT22;11018;51.258;6.806;2023-05-10T05:33:23;15.00;99.90
4354;DHT22;11018;51.258;6.806;2023-05-10T05:35:49;15.00;99.90
4354;DHT22;11018;51.258;6.806;2023-05-10T05:38:16;15.10;99.90
4354;DHT22;11018;51.258;6.806;2023-05-10T05:40:42;15.00;97.20
4354;DHT22;11018;51.258;6.806;2023-05-10T05:43:08;15.00;99.90
4354;DHT22;11018;51.258;6.806;2023-05-10T05:45:34;15.00;96.90
4354;DHT22;11018;51.258;6.806;2023-05-10T05:47:59;14.90;96.40
4354;DHT22;11018;51.258;6.806;2023-05-10T05:50:25;14.80;96.80
4354;DHT22;11018;51.258;6.806;2023-05-10T05:52:51;14.80;97.30
4354;DHT22;11018;51.258;6.806;2023-05-10T05:55:16;14.80;97.30
4354;DHT22;11018;51.258;6.806;2023-05-10T05:57:42;14.70;96.90
4354;DHT22;11018;51.258;6.806;2023-05-10T06:00:08;14.70;98.10
4354;DHT22;11018;51.258;6.806;2023-05-10T06:02:33;14.60;99.90
4354;DHT22;11018;51.258;6.806;2023-05-10T06:04:59;14.60;99.90
4354;DHT22;11018;51.258;6.806;2023-05-10T06:07:24;14.50;99.90
4354;DHT22;11018;51.258;6.806;2023-05-10T06:09:50;14.50;99.90
4354;DHT22;11018;51.258;6.806;2023-05-10T06:12:16;14.50;99.90
4354;DHT22;11018;51.258;6.806;2023-05-10T06:14:42;14.50;99.90
4354;DHT22;11018;51.258;6.806;2023-05-10T06:17:07;14.60;99.90
4354;DHT22;11018;51.258;6.806;2023-05-10T06:19:33;14.60;99.90
4354;DHT22;11018;51.258;6.806;2023-05-10T06:21:58;14.70;99.90
4354;DHT22;11018;51.258;6.806;2023-05-10T06:24:24;14.80;98.00
4354;DHT22;11018;51.258;6.806;2023-05-10T06:26:49;14.80;98.20
4354;DHT22;11018;51.258;6.806;2023-05-10T06:29:15;14.80;95.60
4354;DHT22;11018;51.258;6.806;2023-05-10T06:31:41;14.80;97.40
4354;DHT22;11018;51.258;6.806;2023-05-10T06:34:07;14.80;98.20
4354;DHT22;11018;51.258;6.806;2023-05-10T06:36:33;14.70;99.00
4354;DHT22;11018;51.258;6.806;2023-05-10T06:38:59;14.80;99.90
4354;DHT22;11018;51.258;6.806;2023-05-10T06:41:24;14.70;99.90
4354;DHT22;11018;51.258;6.806;2023-05-10T06:43:50;14.70;99.90
4354;DHT22;11018;51.258;6.806;2023-05-10T06:46:16;14.60;99.90
4354;DHT22;11018;51.258;6.806;2023-05-10T06:48:41;14.60;99.90
4354;DHT22;11018;51.258;6.806;2023-05-10T06:51:07;14.60;99.90
4354;DHT22;11018;51.258;6.806;2023-05-10T06:53:32;14.70;99.80
4354;DHT22;11018;51.258;6.806;2023-05-10T06:55:58;14.60;99.90
4354;DHT22;11018;51.258;6.806;2023-05-10T06:58:24;14.60;99.90
4354;DHT22;11018;51.258;6.806;2023-05-10T07:00:50;14.70;99.90
4354;DHT22;11018;51.258;6.806;2023-05-10T07:03:15;14.70;99.90
4354;DHT22;11018;51.258;6.806;2023-05-10T07:05:41;14.80;99.90
4354;DHT22;11018;51.258;6.806;2023-05-10T07:08:06;14.80;99.70
4354;DHT22;11018;51.258;6.806;2023-05-10T07:10:33;14.90;99.90
4354;DHT22;11018;51.258;6.806;2023-05-10T07:12:58;15.00;99.30
4354;DHT22;11018;51.258;6.806;2023-05-10T07:15:24;15.10;98.70
4354;DHT22;11018;51.258;6.806;2023-05-10T07:17:49;15.30;95.70
4354;DHT22;11018;51.258;6.806;2023-05-10T07:20:15;15.40;92.70
4354;DHT22;11018;51.258;6.806;2023-05-10T07:22:40;15.40;94.60
4354;DHT22;11018;51.258;6.806;2023-05-10T07:25:06;15.40;95.50
4354;DHT22;11018;51.258;6.806;2023-05-10T07:27:32;15.50;95.10
4354;DHT22;11018;51.258;6.806;2023-05-10T07:29:57;15.60;92.00
4354;DHT22;11018;51.258;6.806;2023-05-10T07:32:24;15.70;87.60
4354;DHT22;11018;51.258;6.806;2023-05-10T07:34:49;15.80;84.70
4354;DHT22;11018;51.258;6.806;2023-05-10T07:37:15;15.90;83.00
4354;DHT22;11018;51.258;6.806;2023-05-10T07:39:40;15.90;83.20
4354;DHT22;11018;51.258;6.806;2023-05-10T07:42:06;16.00;82.30
4354;DHT22;11018;51.258;6.806;2023-05-10T07:44:31;16.10;81.30
4354;DHT22;11018;51.258;6.806;2023-05-10T07:46:57;16.00;80.30
4354;DHT22;11018;51.258;6.806;2023-05-10T07:49:22;16.00;80.60
4354;DHT22;11018;51.258;6.806;2023-05-10T07:51:51;16.00;83.20
4354;DHT22;11018;51.258;6.806;2023-05-10T07:54:16;16.00;84.20
4354;DHT22;11018;51.258;6.806;2023-05-10T07:56:42;15.90;82.40
4354;DHT22;11018;51.258;6.806;2023-05-10T07:59:16;15.90;80.70
4354;DHT22;11018;51.258;6.806;2023-05-10T08:01:42;15.70;80.40
4354;DHT22;11018;51.258;6.806;2023-05-10T08:04:07;15.50;82.20
4354;DHT22;11018;51.258;6.806;2023-05-10T08:06:34;15.50;83.00
4354;DHT22;11018;51.258;6.806;2023-05-10T08:09:00;15.60;81.00
4354;DHT22;11018;51.258;6.806;2023-05-10T08:11:25;15.70;81.10
4354;DHT22;11018;51.258;6.806;2023-05-10T08:13:53;15.90;77.80
4354;DHT22;11018;51.258;6.806;2023-05-10T08:16:19;16.10;75.40
4354;DHT22;11018;51.258;6.806;2023-05-10T08:18:45;16.30;75.90
4354;DHT22;11018;51.258;6.806;2023-05-10T08:21:12;16.70;70.40
4354;DHT22;11018;51.258;6.806;2023-05-10T08:23:38;16.90;66.50
4354;DHT22;11018;51.258;6.806;2023-05-10T08:26:03;17.10;66.00
4354;DHT22;11018;51.258;6.806;2023-05-10T08:28:29;17.40;62.30
4354;DHT22;11018;51.258;6.806;2023-05-10T08:30:55;17.60;60.10
4354;DHT22;11018;51.258;6.806;2023-05-10T08:33:20;17.90;55.60
4354;DHT22;11018;51.258;6.806;2023-05-10T08:35:46;18.10;52.20
4354;DHT22;11018;51.258;6.806;2023-05-10T08:38:12;18.20;51.30
4354;DHT22;11018;51.258;6.806;2023-05-10T08:40:42;18.40;51.40
4354;DHT22;11018;51.258;6.806;2023-05-10T08:43:10;18.70;52.00
4354;DHT22;11018;51.258;6.806;2023-05-10T08:45:43;18.50;52.20
4354;DHT22;11018;51.258;6.806;2023-05-10T08:48:11;18.50;49.60
4354;DHT22;11018;51.258;6.806;2023-05-10T08:50:39;18.30;46.50
4354;DHT22;11018;51.258;6.806;2023-05-10T08:53:09;18.20;48.90
4354;DHT22;11018;51.258;6.806;2023-05-10T08:55:35;18.10;52.40
4354;DHT22;11018;51.258;6.806;2023-05-10T08:58:06;17.70;52.80
4354;DHT22;11018;51.258;6.806;2023-05-10T09:00:32;17.40;54.10
4354;DHT22;11018;51.258;6.806;2023-05-10T09:02:58;17.10;58.00
4354;DHT22;11018;51.258;6.806;2023-05-10T09:05:24;16.70;61.40
4354;DHT22;11018;51.258;6.806;2023-05-10T09:07:49;16.30;66.00
4354;DHT22;11018;51.258;6.806;2023-05-10T09:10:15;16.10;66.30
4354;DHT22;11018;51.258;6.806;2023-05-10T09:12:41;16.20;67.10
4354;DHT22;11018;51.258;6.806;2023-05-10T09:15:09;16.30;65.30
4354;DHT22;11018;51.258;6.806;2023-05-10T09:17:36;16.60;59.20
4354;DHT22;11018;51.258;6.806;2023-05-10T09:20:03;17.10;56.30
4354;DHT22;11018;51.258;6.806;2023-05-10T09:22:32;17.60;50.90
4354;DHT22;11018;51.258;6.806;2023-05-10T09:25:24;18.10;45.70
4354;DHT22;11018;51.258;6.806;2023-05-10T09:27:50;18.30;43.10
4354;DHT22;11018;51.258;6.806;2023-05-10T09:30:17;18.20;43.90
4354;DHT22;11018;51.258;6.806;2023-05-10T09:32:48;17.90;46.40
4354;DHT22;11018;51.258;6.806;2023-05-10T09:35:17;17.60;48.80
4354;DHT22;11018;51.258;6.806;2023-05-10T09:37:45;17.40;51.00
4354;DHT22;11018;51.258;6.806;2023-05-10T09:40:13;17.20;49.50
4354;DHT22;11018;51.258;6.806;2023-05-10T09:42:41;17.10;52.90
4354;DHT22;11018;51.258;6.806;2023-05-10T09:45:07;17.00;54.50
4354;DHT22;11018;51.258;6.806;2023-05-10T09:47:36;17.30;49.80
4354;DHT22;11018;51.258;6.806;2023-05-10T09:50:03;17.60;47.20
4354;DHT22;11018;51.258;6.806;2023-05-10T09:52:55;17.60;45.80
4354;DHT22;11018;51.258;6.806;2023-05-10T09:55:25;17.10;52.90
4354;DHT22;11018;51.258;6.806;2023-05-10T09:58:01;17.30;50.20
4354;DHT22;11018;51.258;6.806;2023-05-10T10:00:27;17.40;46.20
4354;DHT22;11018;51.258;6.806;2023-05-10T10:02:59;17.70;43.70
4354;DHT22;11018;51.258;6.806;2023-05-10T10:05:32;18.00;41.60
4354;DHT22;11018;51.258;6.806;2023-05-10T10:07:59;18.40;39.60
4354;DHT22;11018;51.258;6.806;2023-05-10T10:10:26;18.40;39.00
4354;DHT22;11018;51.258;6.806;2023-05-10T10:12:52;18.20;38.60
4354;DHT22;11018;51.258;6.806;2023-05-10T10:15:20;18.00;39.20
4354;DHT22;11018;51.258;6.806;2023-05-10T10:17:46;17.60;43.10
4354;DHT22;11018;51.258;6.806;2023-05-10T10:20:14;17.10;49.10
4354;DHT22;11018;51.258;6.806;2023-05-10T10:22:40;17.00;50.60
4354;DHT22;11018;51.258;6.806;2023-05-10T10:25:07;17.00;52.50
4354;DHT22;11018;51.258;6.806;2023-05-10T10:27:49;17.20;50.10
4354;DHT22;11018;51.258;6.806;2023-05-10T10:30:47;17.10;50.10
4354;DHT22;11018;51.258;6.806;2023-05-10T10:35:59;17.00;51.60
4354;DHT22;11018;51.258;6.806;2023-05-10T10:38:25;17.10;54.10
4354;DHT22;11018;51.258;6.806;2023-05-10T10:41:09;17.20;53.60
4354;DHT22;11018;51.258;6.806;2023-05-10T10:43:35;17.20;54.30
4354;DHT22;11018;51.258;6.806;2023-05-10T10:46:17;17.20;50.10
4354;DHT22;11018;51.258;6.806;2023-05-10T10:49:08;17.20;48.70
4354;DHT22;11018;51.258;6.806;2023-05-10T10:51:38;17.30;47.50
4354;DHT22;11018;51.258;6.806;2023-05-10T10:54:10;17.30;45.90
4354;DHT22;11018;51.258;6.806;2023-05-10T10:56:36;17.60;43.90
4354;DHT22;11018;51.258;6.806;2023-05-10T10:59:02;18.00;41.80
4354;DHT22;11018;51.258;6.806;2023-05-10T11:01:33;18.30;39.50
4354;DHT22;11018;51.258;6.806;2023-05-10T11:06:33;18.80;36.70
4354;DHT22;11018;51.258;6.806;2023-05-10T11:09:00;18.90;35.50
4354;DHT22;11018;51.258;6.806;2023-05-10T11:11:31;18.80;37.30
4354;DHT22;11018;51.258;6.806;2023-05-10T11:14:03;18.50;39.90
4354;DHT22;11018;51.258;6.806;2023-05-10T11:16:42;18.60;39.70
4354;DHT22;11018;51.258;6.806;2023-05-10T11:19:12;18.40;40.80
4354;DHT22;11018;51.258;6.806;2023-05-10T11:24:17;17.80;40.40
4354;DHT22;11018;51.258;6.806;2023-05-10T11:26:42;17.70;42.40
4354;DHT22;11018;51.258;6.806;2023-05-10T11:29:08;17.80;44.00
4354;DHT22;11018;51.258;6.806;2023-05-10T11:31:34;18.00;43.80
4354;DHT22;11018;51.258;6.806;2023-05-10T11:34:00;17.90;41.30
4354;DHT22;11018;51.258;6.806;2023-05-10T11:36:33;17.90;42.80
4354;DHT22;11018;51.258;6.806;2023-05-10T11:38:59;18.10;40.30
4354;DHT22;11018;51.258;6.806;2023-05-10T11:41:27;18.20;42.50
4354;DHT22;11018;51.258;6.806;2023-05-10T11:43:54;18.50;39.10
4354;DHT22;11018;51.258;6.806;2023-05-10T11:46:22;18.70;38.10
4354;DHT22;11018;51.258;6.806;2023-05-10T11:48:50;18.70;37.10
4354;DHT22;11018;51.258;6.806;2023-05-10T11:51:23;18.60;37.40
4354;DHT22;11018;51.258;6.806;2023-05-10T11:53:53;18.50;36.70
4354;DHT22;11018;51.258;6.806;2023-05-10T11:56:19;18.50;39.30
4354;DHT22;11018;51.258;6.806;2023-05-10T11:58:54;18.70;38.30
4354;DHT22;11018;51.258;6.806;2023-05-10T12:01:21;18.70;37.90
4354;DHT22;11018;51.258;6.806;2023-05-10T12:03:51;18.70;35.40
4354;DHT22;11018;51.258;6.806;2023-05-10T12:06:19;18.80;37.30
4354;DHT22;11018;51.258;6.806;2023-05-10T12:08:46;19.00;36.00
4354;DHT22;11018;51.258;6.806;2023-05-10T12:11:12;19.30;37.40
4354;DHT22;11018;51.258;6.806;2023-05-10T12:13:42;19.60;33.70
4354;DHT22;11018;51.258;6.806;2023-05-10T12:18:43;18.90;35.60
4354;DHT22;11018;51.258;6.806;2023-05-10T12:21:10;18.70;37.50
4354;DHT22;11018;51.258;6.806;2023-05-10T12:23:37;18.90;38.00
4354;DHT22;11018;51.258;6.806;2023-05-10T12:26:04;19.20;36.30
4354;DHT22;11018;51.258;6.806;2023-05-10T12:28:30;19.30;34.90
4354;DHT22;11018;51.258;6.806;2023-05-10T12:30:59;19.60;34.20
4354;DHT22;11018;51.258;6.806;2023-05-10T12:33:25;19.70;32.30
4354;DHT22;11018;51.258;6.806;2023-05-10T12:35:52;19.50;33.60
4354;DHT22;11018;51.258;6.806;2023-05-10T12:40:50;20.10;32.30
4354;DHT22;11018;51.258;6.806;2023-05-10T12:43:16;19.50;29.10
4354;DHT22;11018;51.258;6.806;2023-05-10T12:45:41;19.20;33.40
4354;DHT22;11018;51.258;6.806;2023-05-10T12:48:07;18.60;35.10
4354;DHT22;11018;51.258;6.806;2023-05-10T12:50:32;18.30;38.50
4354;DHT22;11018;51.258;6.806;2023-05-10T12:52:58;18.10;40.30
4354;DHT22;11018;51.258;6.806;2023-05-10T12:55:23;18.30;40.30
4354;DHT22;11018;51.258;6.806;2023-05-10T12:57:49;18.50;37.30
4354;DHT22;11018;51.258;6.806;2023-05-10T13:00:15;19.00;36.20
4354;DHT22;11018;51.258;6.806;2023-05-10T13:02:40;19.60;33.70
4354;DHT22;11018;51.258;6.806;2023-05-10T13:05:06;20.00;30.50
4354;DHT22;11018;51.258;6.806;2023-05-10T13:07:32;20.40;26.90
4354;DHT22;11018;51.258;6.806;2023-05-10T13:09:57;20.60;26.10
4354;DHT22;11018;51.258;6.806;2023-05-10T13:12:23;20.70;24.50
4354;DHT22;11018;51.258;6.806;2023-05-10T13:14:48;20.80;24.70
4354;DHT22;11018;51.258;6.806;2023-05-10T13:17:14;21.10;24.00
4354;DHT22;11018;51.258;6.806;2023-05-10T13:19:40;21.20;23.00
4354;DHT22;11018;51.258;6.806;2023-05-10T13:22:05;21.40;22.00
4354;DHT22;11018;51.258;6.806;2023-05-10T13:24:31;21.50;21.70
4354;DHT22;11018;51.258;6.806;2023-05-10T13:26:57;21.40;22.70
4354;DHT22;11018;51.258;6.806;2023-05-10T13:29:23;21.40;21.90
4354;DHT22;11018;51.258;6.806;2023-05-10T13:31:49;21.30;22.70
4354;DHT22;11018;51.258;6.806;2023-05-10T13:34:14;21.30;22.20
4354;DHT22;11018;51.258;6.806;2023-05-10T13:36:40;21.40;23.00
4354;DHT22;11018;51.258;6.806;2023-05-10T13:39:06;21.50;21.80
4354;DHT22;11018;51.258;6.806;2023-05-10T13:41:31;21.60;22.30
4354;DHT22;11018;51.258;6.806;2023-05-10T13:43:57;21.30;22.70
4354;DHT22;11018;51.258;6.806;2023-05-10T13:46:23;21.10;24.10
4354;DHT22;11018;51.258;6.806;2023-05-10T13:48:48;21.00;22.90
4354;DHT22;11018;51.258;6.806;2023-05-10T13:51:14;21.00;23.00
4354;DHT22;11018;51.258;6.806;2023-05-10T13:53:39;21.00;22.90
4354;DHT22;11018;51.258;6.806;2023-05-10T13:56:05;20.90;23.10
4354;DHT22;11018;51.258;6.806;2023-05-10T13:58:31;21.00;21.90
4354;DHT22;11018;51.258;6.806;2023-05-10T14:00:56;21.20;22.40
4354;DHT22;11018;51.258;6.806;2023-05-10T14:03:22;21.10;22.10
4354;DHT22;11018;51.258;6.806;2023-05-10T14:05:47;21.00;23.30
4354;DHT22;11018;51.258;6.806;2023-05-10T14:08:13;21.30;24.20
4354;DHT22;11018;51.258;6.806;2023-05-10T14:10:39;21.20;23.60
4354;DHT22;11018;51.258;6.806;2023-05-10T14:13:05;21.20;22.20
4354;DHT22;11018;51.258;6.806;2023-05-10T14:15:31;21.50;23.10
4354;DHT22;11018;51.258;6.806;2023-05-10T14:17:57;22.10;21.60
4354;DHT22;11018;51.258;6.806;2023-05-10T14:20:22;22.80;19.30
4354;DHT22;11018;51.258;6.806;2023-05-10T14:22:48;23.10;18.60
4354;DHT22;11018;51.258;6.806;2023-05-10T14:25:14;23.80;17.90
4354;DHT22;11018;51.258;6.806;2023-05-10T14:27:40;24.60;17.10
4354;DHT22;11018;51.258;6.806;2023-05-10T14:30:06;24.80;15.90
4354;DHT22;11018;51.258;6.806;2023-05-10T14:32:31;25.10;16.40
4354;DHT22;11018;51.258;6.806;2023-05-10T14:34:57;24.90;15.90
4354;DHT22;11018;51.258;6.806;2023-05-10T14:37:23;24.30;17.20
4354;DHT22;11018;51.258;6.806;2023-05-10T14:39:48;23.80;18.00
4354;DHT22;11018;51.258;6.806;2023-05-10T14:42:14;23.80;17.30
4354;DHT22;11018;51.258;6.806;2023-05-10T14:44:39;23.60;17.90
4354;DHT22;11018;51.258;6.806;2023-05-10T14:47:05;23.20;19.80
4354;DHT22;11018;51.258;6.806;2023-05-10T14:49:31;22.90;19.70
4354;DHT22;11018;51.258;6.806;2023-05-10T14:51:56;22.60;21.00
4354;DHT22;11018;51.258;6.806;2023-05-10T14:54:22;22.30;20.80
4354;DHT22;11018;51.258;6.806;2023-05-10T14:56:47;22.30;21.30
4354;DHT22;11018;51.258;6.806;2023-05-10T14:59:15;22.60;20.10
4354;DHT22;11018;51.258;6.806;2023-05-10T15:01:40;23.10;20.20
4354;DHT22;11018;51.258;6.806;2023-05-10T15:04:07;24.20;17.80
4354;DHT22;11018;51.258;6.806;2023-05-10T15:06:34;26.00;12.80
4354;DHT22;11018;51.258;6.806;2023-05-10T15:09:00;26.60;10.20
4354;DHT22;11018;51.258;6.806;2023-05-10T15:11:26;27.50;9.60
4354;DHT22;11018;51.258;6.806;2023-05-10T15:13:52;27.80;7.80
4354;DHT22;11018;51.258;6.806;2023-05-10T15:16:18;26.30;11.40
4354;DHT22;11018;51.258;6.806;2023-05-10T15:18:43;25.20;13.00
4354;DHT22;11018;51.258;6.806;2023-05-10T15:21:09;24.30;14.60
4354;DHT22;11018;51.258;6.806;2023-05-10T15:23:35;24.10;15.10
4354;DHT22;11018;51.258;6.806;2023-05-10T15:26:01;24.00;15.90
4354;DHT22;11018;51.258;6.806;2023-05-10T15:28:28;24.20;16.20
4354;DHT22;11018;51.258;6.806;2023-05-10T15:30:54;25.40;14.70
4354;DHT22;11018;51.258;6.806;2023-05-10T15:33:20;26.70;11.40
4354;DHT22;11018;51.258;6.806;2023-05-10T15:35:46;27.80;9.00
4354;DHT22;11018;51.258;6.806;2023-05-10T15:38:11;28.20;8.00
4354;DHT22;11018;51.258;6.806;2023-05-10T15:40:37;28.00;8.10
4354;DHT22;11018;51.258;6.806;2023-05-10T15:43:02;28.10;9.20
4354;DHT22;11018;51.258;6.806;2023-05-10T15:45:28;28.10;8.20
4354;DHT22;11018;51.258;6.806;2023-05-10T15:47:54;27.80;8.90
4354;DHT22;11018;51.258;6.806;2023-05-10T15:50:20;27.30;10.40
4354;DHT22;11018;51.258;6.806;2023-05-10T15:52:45;27.00;10.30
4354;DHT22;11018;51.258;6.806;2023-05-10T15:55:11;26.90;10.60
4354;DHT22;11018;51.258;6.806;2023-05-10T15:57:38;27.10;10.00
4354;DHT22;11018;51.258;6.806;2023-05-10T16:00:06;26.30;10.20
4354;DHT22;11018;51.258;6.806;2023-05-10T16:02:31;24.90;12.80
4354;DHT22;11018;51.258;6.806;2023-05-10T16:04:57;23.80;15.40
4354;DHT22;11018;51.258;6.806;2023-05-10T16:07:23;23.00;17.00
4354;DHT22;11018;51.258;6.806;2023-05-10T16:09:48;22.00;19.50
4354;DHT22;11018;51.258;6.806;2023-05-10T16:12:14;19.90;22.40